Aérodrome :
LOGIN :

S'inscrire | Disclaimer

   EN    FR    IT 

 










Légende :    VFR   VFR Marginal   IFR   IFR Intensif   IFR Très Intensif
Visi : 
Plafond : 
>= 8 km
>= 3000ft
5 à 8 km
1000 à 3000 ft
1500m à 5 km
500 à 1000 ft
800 à 1500m
200 à 500 ft
< 800m
< 200 ft
Symboles :   Orages  Brouillard  Fortes neiges  Fortes précipitations  Vent > 20 kt
SIGMETs :   Divers  Orages  Givrage  Turbulence  Onde Orograph.  Cendres Volcan.







- Altitude de l'aérodrome : 607 ft
- Code IATA : BCM


LRBC - Bacău

DERNIER METAR :
  • 261030Z 33004KT 300V020 9999 BKN055 24/12 Q1015

METARs EXPIRÉS :
  • 261000Z VRB03KT 9999 BKN050 25/12 Q1015
  • 260930Z 31007KT 270V010 9999 BKN047 24/14 Q1015
  • 260900Z VRB02KT 9999 SCT047 24/13 Q1015
  • 260830Z 32006KT 290V350 9999 SCT037 23/14 Q1015
  • 260800Z 31007KT 9999 SCT037 23/14 Q1015

TAF TAF LRBC
Valide du 26 à 09h jusqu'au 26 à 18h UTC


260800Z 2609/2618 34010KT 9999 SCT040
TEMPO 2610/2615 SCT040CB
PROB30
TEMPO 2611/2615 VRB20KT -TSRA
BECMG 2615/2617 25010KT
Pas de NOTAMs connus pour ce terrain.



MET'MAP, la Météo Aéronautique d'un coup d'oeil ! - Copyright ORBIFLY Décembre 2007 - Disclaimer

ORBIFLY MET'MAP TEAM :

Programmation & Développement : Alexandra Zaïnal
Conception & Développement : Baudouin d'Aumeries
Co-Programmation & Développement : Marc-Olivier Méhu
Soutien technique & logistique : Manuel Goepfert

Contact : metmap@orbifly.com




SOURCES & CREDITS :

   NOAA